Time;durP1;ratioP1;P1;durP2;ratioP2;P2;SDS_P1;SDS_P2;PMS_P1;PMS_P2;Temp;Humidity;BMP_temperature;BMP_pressure;BME280_temperature;BME280_humidity;BME280_pressure;Samples;Min_cycle;Max_cycle;Signal;HPM_P1;HPM_P2
2022/09/27 00:01:11;;;;;;;0.20;0.20;;;;;;;;;;5002282;28;20037;-88
2022/09/27 00:03:37;;;;;;;0.30;0.30;;;;;;;;;;5002216;28;20046;-89
2022/09/27 00:06:08;;;;;;;0.30;0.30;;;;;;;;;;5002135;28;20037;-88
2022/09/27 00:08:35;;;;;;;0.28;0.28;;;;;;;;;;5002480;28;20554;-88
2022/09/27 00:11:01;;;;;;;0.20;0.20;;;;;;;;;;5001989;28;20041;-88
2022/09/27 00:13:28;;;;;;;0.25;0.25;;;;;;;;;;5002337;28;20052;-88
2022/09/27 00:15:57;;;;;;;0.40;0.40;;;;;;;;;;5001959;28;20049;-89
2022/09/27 00:18:23;;;;;;;0.20;0.20;;;;;;;;;;5002254;28;20041;-88
2022/09/27 00:20:49;;;;;;;0.30;0.30;;;;;;;;;;5001869;28;20033;-88
2022/09/27 00:23:16;;;;;;;0.20;0.20;;;;;;;;;;5018504;28;20076;-88
2022/09/27 00:25:41;;;;;;;0.30;0.30;;;;;;;;;;5001579;28;20505;-88
2022/09/27 00:28:08;;;;;;;0.30;0.30;;;;;;;;;;5001718;28;20045;-88
2022/09/27 00:30:34;;;;;;;0.40;0.40;;;;;;;;;;5017735;28;20486;-88
2022/09/27 00:33:00;;;;;;;0.20;0.20;;;;;;;;;;5001419;28;20033;-87
2022/09/27 00:35:26;;;;;;;0.20;0.20;;;;;;;;;;5001859;28;20072;-88
2022/09/27 00:37:52;;;;;;;0.32;0.32;;;;;;;;;;5018061;28;20041;-88
2022/09/27 00:40:22;;;;;;;0.20;0.20;;;;;;;;;;5002018;28;20103;-88
2022/09/27 00:42:49;;;;;;;0.20;0.20;;;;;;;;;;5001480;28;20510;-88
2022/09/27 00:45:16;;;;;;;0.30;0.30;;;;;;;;;;5001655;28;20037;-88
2022/09/27 00:47:47;;;;;;;0.25;0.25;;;;;;;;;;5001374;28;20037;-88
2022/09/27 00:50:28;;;;;;;0.30;0.30;;;;;;;;;;5017589;28;20044;-88
2022/09/27 00:53:23;;;;;;;0.30;0.30;;;;;;;;;;5001579;28;20041;-88
2022/09/27 00:55:53;;;;;;;0.20;0.20;;;;;;;;;;4985306;28;20049;-88
2022/09/27 00:58:21;;;;;;;0.20;0.20;;;;;;;;;;5001168;28;20128;-88
2022/09/27 01:00:50;;;;;;;0.30;0.30;;;;;;;;;;5001123;28;20079;-88
2022/09/27 01:03:22;;;;;;;0.20;0.20;;;;;;;;;;5001352;28;20094;-88
2022/09/27 01:05:49;;;;;;;0.20;0.20;;;;;;;;;;5017607;28;20106;-88
2022/09/27 01:08:14;;;;;;;0.20;0.20;;;;;;;;;;5001267;28;20045;-88
2022/09/27 01:10:48;;;;;;;0.20;0.20;;;;;;;;;;5017167;28;20037;-88
2022/09/27 01:13:40;;;;;;;0.15;0.15;;;;;;;;;;5017192;28;20045;-88
2022/09/27 01:16:12;;;;;;;0.20;0.20;;;;;;;;;;4971848;28;20046;-88
2022/09/27 01:18:44;;;;;;;0.20;0.20;;;;;;;;;;5001191;28;20486;-89
2022/09/27 01:21:25;;;;;;;0.30;0.30;;;;;;;;;;5017528;28;20127;-88
2022/09/27 01:23:51;;;;;;;0.20;0.20;;;;;;;;;;5000536;28;20462;-88
2022/09/27 01:26:36;;;;;;;0.30;0.30;;;;;;;;;;5017215;28;20045;-88
2022/09/27 01:29:05;;;;;;;0.20;0.20;;;;;;;;;;5000748;28;20049;-88
2022/09/27 01:31:50;;;;;;;0.30;0.30;;;;;;;;;;5000495;28;20048;-89
2022/09/27 01:34:22;;;;;;;0.30;0.30;;;;;;;;;;5000334;28;20041;-88
2022/09/27 01:36:54;;;;;;;0.30;0.30;;;;;;;;;;5000484;28;20049;-87
2022/09/27 01:39:26;;;;;;;0.30;0.30;;;;;;;;;;4999921;28;20049;-88
2022/09/27 01:41:55;;;;;;;0.30;0.30;;;;;;;;;;5000348;28;20128;-88
2022/09/27 01:44:37;;;;;;;0.38;0.38;;;;;;;;;;5000282;28;20102;-88
2022/09/27 01:47:05;;;;;;;0.20;0.20;;;;;;;;;;5000294;28;20048;-88
2022/09/27 01:49:34;;;;;;;0.30;0.30;;;;;;;;;;5016474;28;20454;-87
2022/09/27 01:52:02;;;;;;;0.30;0.30;;;;;;;;;;4999954;28;20048;-88
2022/09/27 01:54:33;;;;;;;0.20;0.20;;;;;;;;;;5000461;28;20057;-88
2022/09/27 01:57:00;;;;;;;0.20;0.20;;;;;;;;;;5000066;28;20047;-88
2022/09/27 01:59:28;;;;;;;0.20;0.20;;;;;;;;;;5000165;28;20041;-88
2022/09/27 02:01:58;;;;;;;0.25;0.25;;;;;;;;;;5000252;28;20037;-88
2022/09/27 02:04:26;;;;;;;0.20;0.20;;;;;;;;;;5000763;28;20876;-88
2022/09/27 02:07:01;;;;;;;0.28;0.28;;;;;;;;;;5000369;28;20049;-89
2022/09/27 02:09:27;;;;;;;;;;;;;;;;;;5000220;28;20041;-88
2022/09/27 02:11:55;;;;;;;0.28;0.28;;;;;;;;;;4999807;28;19917;-88
2022/09/27 02:14:25;;;;;;;0.20;0.20;;;;;;;;;;4999876;28;20047;-88
2022/09/27 02:16:53;;;;;;;0.20;0.20;;;;;;;;;;4999690;28;20048;-88
2022/09/27 02:19:19;;;;;;;0.30;0.30;;;;;;;;;;4999718;28;20424;-88
2022/09/27 02:22:05;;;;;;;0.30;0.30;;;;;;;;;;4999922;28;20037;-88
2022/09/27 02:24:41;;;;;;;0.30;0.30;;;;;;;;;;4960959;28;20052;-89
2022/09/27 02:27:28;;;;;;;0.30;0.30;;;;;;;;;;5016372;28;20044;-88
2022/09/27 02:30:00;;;;;;;0.20;0.20;;;;;;;;;;4999785;28;20048;-88
2022/09/27 02:32:26;;;;;;;0.30;0.30;;;;;;;;;;4999652;28;20045;-88
2022/09/27 02:34:53;;;;;;;0.30;0.30;;;;;;;;;;5016407;28;20045;-88
2022/09/27 02:37:19;;;;;;;0.30;0.30;;;;;;;;;;4999431;28;20042;-87
2022/09/27 02:39:45;;;;;;;0.22;0.22;;;;;;;;;;4999691;28;20083;-88
2022/09/27 02:42:12;;;;;;;0.20;0.20;;;;;;;;;;5016294;28;20033;-87
2022/09/27 02:44:39;;;;;;;0.30;0.30;;;;;;;;;;4999708;28;20560;-88
2022/09/27 02:47:11;;;;;;;0.30;0.30;;;;;;;;;;4999720;28;20124;-88
2022/09/27 02:49:53;;;;;;;0.30;0.30;;;;;;;;;;4999782;28;20041;-88
2022/09/27 02:52:28;;;;;;;0.20;0.20;;;;;;;;;;5003693;28;20045;-88
2022/09/27 02:54:54;;;;;;;;;;;;;;;;;;5003901;28;20049;-88
2022/09/27 02:57:36;;;;;;;0.20;0.20;;;;;;;;;;5003510;28;19920;-88
2022/09/27 03:00:08;;;;;;;0.30;0.30;;;;;;;;;;5003384;28;20038;-88
2022/09/27 03:02:53;;;;;;;0.30;0.30;;;;;;;;;;5003799;28;20041;-88
2022/09/27 03:05:24;;;;;;;0.30;0.30;;;;;;;;;;5003418;28;20126;-88
2022/09/27 03:07:50;;;;;;;0.30;0.30;;;;;;;;;;5019714;28;20041;-89
2022/09/27 03:10:22;;;;;;;0.40;0.40;;;;;;;;;;5003452;28;20041;-87
2022/09/27 03:12:49;;;;;;;0.17;0.17;;;;;;;;;;5003376;28;20068;-88
2022/09/27 03:15:15;;;;;;;0.30;0.30;;;;;;;;;;5003071;28;20034;-88
2022/09/27 03:17:41;;;;;;;0.30;0.30;;;;;;;;;;5036313;28;20044;-88
2022/09/27 03:20:08;;;;;;;0.30;0.30;;;;;;;;;;5019353;28;20037;-88
2022/09/27 03:22:34;;;;;;;0.30;0.30;;;;;;;;;;5019969;28;20036;-89
2022/09/27 03:25:00;;;;;;;0.20;0.20;;;;;;;;;;5019311;28;20068;-88
2022/09/27 03:27:26;;;;;;;0.22;0.22;;;;;;;;;;5019547;28;20046;-88
2022/09/27 03:29:52;;;;;;;0.30;0.30;;;;;;;;;;5019097;28;20042;-88
2022/09/27 03:32:18;;;;;;;0.20;0.20;;;;;;;;;;5019228;28;20045;-88
2022/09/27 03:34:44;;;;;;;0.40;0.40;;;;;;;;;;5019103;28;20041;-88
2022/09/27 03:37:10;;;;;;;0.30;0.30;;;;;;;;;;5019259;28;20037;-88
2022/09/27 03:39:36;;;;;;;0.20;0.20;;;;;;;;;;5019176;28;20040;-88
2022/09/27 03:42:02;;;;;;;0.22;0.22;;;;;;;;;;5019222;28;20033;-88
2022/09/27 03:44:28;;;;;;;0.30;0.30;;;;;;;;;;5019186;28;20076;-88
2022/09/27 03:46:54;;;;;;;0.30;0.30;;;;;;;;;;5019090;28;20045;-88
2022/09/27 03:49:20;;;;;;;0.20;0.20;;;;;;;;;;5018859;28;20573;-88
2022/09/27 03:51:46;;;;;;;0.32;0.32;;;;;;;;;;5018978;28;20050;-88
2022/09/27 03:54:12;;;;;;;0.40;0.40;;;;;;;;;;5018986;28;20409;-88
2022/09/27 03:56:38;;;;;;;0.28;0.28;;;;;;;;;;5018882;28;20052;-88
2022/09/27 03:59:04;;;;;;;0.30;0.30;;;;;;;;;;5034909;28;20073;-88
2022/09/27 04:01:30;;;;;;;0.30;0.30;;;;;;;;;;5034435;28;20041;-88
2022/09/27 04:03:56;;;;;;;0.20;0.20;;;;;;;;;;5002021;28;20041;-88
2022/09/27 04:06:22;;;;;;;0.30;0.30;;;;;;;;;;5002412;28;20371;-88
2022/09/27 04:08:49;;;;;;;0.20;0.20;;;;;;;;;;5001931;28;20041;-87
2022/09/27 04:11:16;;;;;;;0.30;0.30;;;;;;;;;;5002336;28;20041;-88
2022/09/27 04:13:43;;;;;;;0.30;0.30;;;;;;;;;;5018681;28;20045;-88
2022/09/27 04:16:09;;;;;;;0.20;0.20;;;;;;;;;;5002278;28;20077;-88
2022/09/27 04:18:35;;;;;;;0.28;0.28;;;;;;;;;;5002261;28;20041;-88
2022/09/27 04:21:02;;;;;;;0.30;0.30;;;;;;;;;;5002090;28;20037;-88
2022/09/27 04:23:28;;;;;;;0.22;0.22;;;;;;;;;;5002272;28;20107;-87
2022/09/27 04:25:54;;;;;;;0.30;0.30;;;;;;;;;;5001887;28;20045;-88
2022/09/27 04:28:20;;;;;;;0.40;0.40;;;;;;;;;;5002073;28;20555;-88
2022/09/27 04:30:47;;;;;;;0.30;0.30;;;;;;;;;;5001700;28;20052;-88
2022/09/27 04:33:13;;;;;;;0.30;0.30;;;;;;;;;;5001637;28;20055;-88
2022/09/27 04:38:24;;;;;;;0.30;0.30;;;;;;;;;;5017978;28;20525;-88
2022/09/27 04:40:50;;;;;;;0.20;0.20;;;;;;;;;;5001385;28;20041;-88
2022/09/27 04:43:16;;;;;;;0.32;0.32;;;;;;;;;;5001682;28;20184;-88
2022/09/27 04:45:43;;;;;;;0.20;0.20;;;;;;;;;;5018117;28;20041;-88
2022/09/27 04:48:09;;;;;;;0.25;0.25;;;;;;;;;;5017772;28;20050;-88
2022/09/27 04:50:35;;;;;;;0.20;0.20;;;;;;;;;;5001135;28;20048;-87
2022/09/27 04:53:01;;;;;;;0.30;0.30;;;;;;;;;;5001374;28;20077;-87
2022/09/27 04:55:27;;;;;;;0.30;0.30;;;;;;;;;;5001211;28;20064;-88
2022/09/27 04:57:53;;;;;;;0.30;0.30;;;;;;;;;;5001201;28;20482;-87
2022/09/27 05:00:19;;;;;;;0.30;0.30;;;;;;;;;;5001187;28;20038;-87
2022/09/27 05:02:49;;;;;;;0.30;0.30;;;;;;;;;;5001303;28;20124;-87
2022/09/27 05:05:15;;;;;;;0.30;0.30;;;;;;;;;;5000957;28;20041;-88
2022/09/27 05:07:41;;;;;;;0.30;0.30;;;;;;;;;;5017494;28;20053;-87
2022/09/27 05:10:08;;;;;;;0.40;0.40;;;;;;;;;;5000621;28;20049;-88
2022/09/27 05:12:34;;;;;;;0.20;0.20;;;;;;;;;;5016532;28;20547;-88
2022/09/27 05:15:01;;;;;;;0.35;0.35;;;;;;;;;;5000825;28;20084;-88
2022/09/27 05:17:27;;;;;;;0.20;0.20;;;;;;;;;;5000803;28;20507;-88
2022/09/27 05:19:53;;;;;;;0.30;0.30;;;;;;;;;;5000329;28;20037;-88
2022/09/27 05:22:19;;;;;;;0.30;0.30;;;;;;;;;;5000704;28;20065;-88
2022/09/27 05:24:45;;;;;;;0.30;0.30;;;;;;;;;;5000709;28;20122;-88
2022/09/27 05:27:19;;;;;;;0.20;0.20;;;;;;;;;;5000789;28;20051;-88
2022/09/27 05:29:45;;;;;;;0.20;0.20;;;;;;;;;;5000651;28;20046;-88
2022/09/27 05:32:11;;;;;;;0.20;0.20;;;;;;;;;;5016766;28;20041;-88
2022/09/27 05:34:37;;;;;;;0.35;0.35;;;;;;;;;;5000820;28;20077;-88
2022/09/27 05:37:03;;;;;;;0.40;0.40;;;;;;;;;;5000541;28;20540;-88
2022/09/27 05:39:29;;;;;;;0.20;0.20;;;;;;;;;;5000231;28;20045;-88
2022/09/27 05:41:56;;;;;;;0.32;0.32;;;;;;;;;;5016836;28;20398;-87
2022/09/27 05:44:22;;;;;;;0.30;0.30;;;;;;;;;;5000439;28;20116;-88
2022/09/27 05:46:48;;;;;;;0.22;0.22;;;;;;;;;;5000356;28;20049;-88
2022/09/27 05:49:14;;;;;;;0.40;0.40;;;;;;;;;;5000309;28;20037;-88
2022/09/27 05:51:41;;;;;;;0.40;0.40;;;;;;;;;;5000667;28;20128;-88
2022/09/27 05:54:07;;;;;;;0.30;0.30;;;;;;;;;;5000303;28;20077;-87
2022/09/27 05:56:33;;;;;;;0.30;0.30;;;;;;;;;;5000473;28;20080;-88
2022/09/27 05:58:59;;;;;;;0.20;0.20;;;;;;;;;;5000128;28;20037;-87
2022/09/27 06:01:26;;;;;;;0.32;0.32;;;;;;;;;;5016817;28;20052;-88
2022/09/27 06:03:52;;;;;;;0.25;0.25;;;;;;;;;;5000129;28;20041;-88
2022/09/27 06:06:19;;;;;;;0.40;0.40;;;;;;;;;;5000320;28;20045;-87
2022/09/27 06:08:45;;;;;;;0.40;0.40;;;;;;;;;;4999967;28;20088;-87
2022/09/27 06:11:12;;;;;;;0.20;0.20;;;;;;;;;;4999787;28;20091;-87
2022/09/27 06:13:38;;;;;;;0.28;0.28;;;;;;;;;;4999752;28;20080;-87
2022/09/27 06:16:05;;;;;;;0.30;0.30;;;;;;;;;;4999784;28;20063;-88
2022/09/27 06:18:31;;;;;;;0.40;0.40;;;;;;;;;;5000172;28;20045;-87
2022/09/27 06:21:01;;;;;;;0.35;0.35;;;;;;;;;;4999957;28;20429;-87
2022/09/27 06:23:27;;;;;;;0.30;0.30;;;;;;;;;;5016045;28;20041;-88
2022/09/27 06:25:53;;;;;;;0.35;0.35;;;;;;;;;;5000074;28;20084;-87
2022/09/27 06:28:20;;;;;;;0.28;0.28;;;;;;;;;;4999715;28;20452;-88
2022/09/27 06:30:49;;;;;;;0.30;0.30;;;;;;;;;;4999273;28;20065;-88
2022/09/27 06:33:18;;;;;;;0.30;0.30;;;;;;;;;;5000090;28;20104;-87
2022/09/27 06:35:45;;;;;;;0.30;0.30;;;;;;;;;;4999693;28;20414;-88
2022/09/27 06:38:12;;;;;;;0.32;0.32;;;;;;;;;;5016086;28;20118;-88
2022/09/27 06:40:39;;;;;;;0.30;0.30;;;;;;;;;;4999895;28;20499;-87
2022/09/27 06:43:07;;;;;;;0.32;0.32;;;;;;;;;;4999042;28;20033;-87
2022/09/27 06:45:35;;;;;;;0.30;0.30;;;;;;;;;;4997774;28;20033;-89
2022/09/27 06:48:01;;;;;;;0.40;0.40;;;;;;;;;;5015083;28;20042;-88
2022/09/27 06:50:28;;;;;;;0.32;0.32;;;;;;;;;;4998376;28;20464;-88
2022/09/27 06:52:55;;;;;;;0.20;0.20;;;;;;;;;;4998812;28;20495;-88
2022/09/27 06:55:21;;;;;;;0.30;0.30;;;;;;;;;;4998579;28;20045;-88
2022/09/27 07:00:32;;;;;;;0.20;0.20;;;;;;;;;;5011475;28;20479;-88
2022/09/27 07:03:01;;;;;;;0.30;0.30;;;;;;;;;;4998960;28;20052;-89
2022/09/27 07:05:30;;;;;;;0.30;0.30;;;;;;;;;;5011060;28;20164;-89
2022/09/27 07:08:01;;;;;;;0.20;0.20;;;;;;;;;;4991754;28;20032;-88
2022/09/27 07:10:28;;;;;;;0.30;0.30;;;;;;;;;;4984531;28;20045;-88
2022/09/27 07:13:06;;;;;;;0.40;0.40;;;;;;;;;;4997422;28;20045;-88
2022/09/27 07:15:35;;;;;;;0.28;0.28;;;;;;;;;;5010349;28;20040;-87
2022/09/27 07:18:01;;;;;;;0.30;0.30;;;;;;;;;;5008590;28;20451;-87
2022/09/27 07:20:30;;;;;;;0.25;0.25;;;;;;;;;;4997317;28;20049;-87
2022/09/27 07:22:57;;;;;;;0.20;0.20;;;;;;;;;;4997635;28;20446;-89
2022/09/27 07:25:23;;;;;;;0.30;0.30;;;;;;;;;;4997816;28;20041;-88
2022/09/27 07:27:51;;;;;;;0.20;0.20;;;;;;;;;;4998162;28;20681;-88
2022/09/27 07:30:19;;;;;;;0.30;0.30;;;;;;;;;;4997414;28;20047;-87
2022/09/27 07:32:46;;;;;;;0.30;0.30;;;;;;;;;;4997069;28;20045;-89
2022/09/27 07:35:15;;;;;;;0.30;0.30;;;;;;;;;;4996392;28;20418;-87
2022/09/27 07:37:42;;;;;;;0.28;0.28;;;;;;;;;;4999778;28;20124;-85
2022/09/27 07:40:09;;;;;;;0.20;0.20;;;;;;;;;;4999844;28;20041;-86
2022/09/27 07:42:40;;;;;;;0.20;0.20;;;;;;;;;;4999975;28;20041;-86
2022/09/27 07:45:06;;;;;;;0.25;0.25;;;;;;;;;;5000126;28;20072;-85
2022/09/27 07:47:32;;;;;;;0.30;0.30;;;;;;;;;;4999892;28;20186;-86
2022/09/27 07:49:58;;;;;;;0.20;0.20;;;;;;;;;;5019757;28;20077;-87
2022/09/27 07:52:24;;;;;;;0.20;0.20;;;;;;;;;;5000130;28;20456;-85
2022/09/27 07:54:50;;;;;;;0.30;0.30;;;;;;;;;;5000233;28;20128;-84
2022/09/27 07:57:16;;;;;;;0.13;0.13;;;;;;;;;;5016240;28;20041;-84
2022/09/27 07:59:42;;;;;;;0.20;0.20;;;;;;;;;;4999277;28;20037;-84
2022/09/27 08:02:13;;;;;;;0.20;0.20;;;;;;;;;;5016191;28;20049;-85
2022/09/27 08:04:40;;;;;;;0.20;0.20;;;;;;;;;;4999830;28;20059;-86
2022/09/27 08:07:06;;;;;;;0.20;0.20;;;;;;;;;;4999585;28;20041;-85
2022/09/27 08:09:32;;;;;;;0.30;0.30;;;;;;;;;;4999156;28;20068;-85
2022/09/27 08:11:58;;;;;;;0.38;0.38;;;;;;;;;;4999736;28;20132;-86
2022/09/27 08:14:24;;;;;;;0.10;0.10;;;;;;;;;;4999716;28;20129;-87
2022/09/27 08:16:50;;;;;;;0.28;0.28;;;;;;;;;;4999626;28;20037;-86
2022/09/27 08:19:17;;;;;;;0.10;0.10;;;;;;;;;;4999437;28;20068;-87
2022/09/27 08:21:43;;;;;;;0.20;0.20;;;;;;;;;;4999632;28;20045;-88
2022/09/27 08:24:09;;;;;;;0.30;0.30;;;;;;;;;;5000392;28;20041;-90
2022/09/27 08:26:35;;;;;;;0.22;0.22;;;;;;;;;;5000233;28;20095;-87
2022/09/27 08:29:02;;;;;;;0.13;0.13;;;;;;;;;;4999061;28;20045;-85
2022/09/27 08:31:27;;;;;;;0.20;0.20;;;;;;;;;;4999479;28;20041;-86
2022/09/27 08:33:56;;;;;;;0.13;0.13;;;;;;;;;;4999649;28;20073;-86
2022/09/27 08:36:23;;;;;;;0.30;0.30;;;;;;;;;;4998978;28;20046;-87
2022/09/27 08:38:49;;;;;;;0.30;0.30;;;;;;;;;;4998720;28;20045;-85
2022/09/27 08:41:24;;;;;;;0.30;0.30;;;;;;;;;;4998910;28;20076;-87
2022/09/27 08:44:10;;;;;;;0.20;0.20;;;;;;;;;;4999162;28;20037;-87
2022/09/27 08:46:57;;;;;;;0.20;0.20;;;;;;;;;;4999195;28;20512;-87
2022/09/27 08:49:27;;;;;;;0.20;0.20;;;;;;;;;;5015429;28;20045;-86
2022/09/27 08:51:54;;;;;;;0.20;0.20;;;;;;;;;;5015382;28;20491;-85
2022/09/27 08:54:28;;;;;;;0.20;0.20;;;;;;;;;;4998664;28;20128;-85
2022/09/27 08:57:01;;;;;;;0.10;0.10;;;;;;;;;;4995725;28;20057;-88
2022/09/27 08:59:28;;;;;;;0.20;0.20;;;;;;;;;;4996110;28;20041;-86
2022/09/27 09:01:54;;;;;;;0.30;0.30;;;;;;;;;;4998597;28;20037;-89
2022/09/27 09:04:30;;;;;;;0.20;0.20;;;;;;;;;;4998739;28;20065;-85
2022/09/27 09:07:19;;;;;;;0.20;0.20;;;;;;;;;;4998507;28;20509;-92
2022/09/27 09:09:54;;;;;;;0.20;0.20;;;;;;;;;;4958857;28;20136;-85
2022/09/27 09:12:47;;;;;;;0.20;0.20;;;;;;;;;;4978913;28;20049;-84
2022/09/27 09:15:16;;;;;;;0.20;0.20;;;;;;;;;;4986515;28;20041;-83
2022/09/27 09:17:55;;;;;;;0.30;0.30;;;;;;;;;;5013018;28;20053;-83
2022/09/27 09:20:21;;;;;;;0.22;0.22;;;;;;;;;;4997870;28;20140;-83
2022/09/27 09:22:58;;;;;;;0.35;0.35;;;;;;;;;;4987883;28;20038;-84
2022/09/27 09:25:43;;;;;;;0.30;0.30;;;;;;;;;;4990030;28;20030;-83
2022/09/27 09:28:18;;;;;;;0.30;0.30;;;;;;;;;;4993367;28;20037;-83
2022/09/27 09:30:44;;;;;;;;;;;;;;;;;;4998004;28;20067;-83
2022/09/27 09:33:26;;;;;;;0.30;0.30;;;;;;;;;;5006384;28;19916;-83
2022/09/27 09:36:00;;;;;;;0.30;0.30;;;;;;;;;;5009370;28;20172;-83
2022/09/27 09:38:45;;;;;;;0.30;0.30;;;;;;;;;;4997958;28;20044;-85
2022/09/27 09:41:25;;;;;;;0.30;0.30;;;;;;;;;;4996833;28;20454;-86
2022/09/27 09:46:53;;;;;;;0.30;0.30;;;;;;;;;;5017772;28;20081;-85
2022/09/27 09:49:34;;;;;;;0.20;0.20;;;;;;;;;;4997646;28;20084;-87
2022/09/27 09:52:31;;;;;;;0.30;0.30;;;;;;;;;;5028013;28;20045;-85
2022/09/27 09:55:03;;;;;;;0.30;0.30;;;;;;;;;;4988053;28;20080;-87
2022/09/27 09:57:33;;;;;;;0.20;0.20;;;;;;;;;;4998132;28;20048;-86
2022/09/27 10:00:07;;;;;;;0.30;0.30;;;;;;;;;;4999426;28;20041;-85
2022/09/27 10:02:41;;;;;;;0.20;0.20;;;;;;;;;;4997978;28;20038;-85
2022/09/27 10:05:10;;;;;;;0.20;0.20;;;;;;;;;;4997729;28;20045;-85
2022/09/27 10:07:38;;;;;;;0.20;0.20;;;;;;;;;;4997425;28;20120;-85
2022/09/27 10:10:05;;;;;;;0.30;0.30;;;;;;;;;;4997502;28;20045;-85
2022/09/27 10:12:31;;;;;;;0.22;0.22;;;;;;;;;;4997996;28;20586;-85
2022/09/27 10:15:00;;;;;;;0.20;0.20;;;;;;;;;;5014045;28;20409;-85
2022/09/27 10:17:32;;;;;;;0.10;0.10;;;;;;;;;;4997730;28;20091;-85
2022/09/27 10:19:58;;;;;;;0.30;0.30;;;;;;;;;;5020008;28;20049;-85
2022/09/27 10:22:31;;;;;;;0.22;0.22;;;;;;;;;;4997319;28;20116;-86
2022/09/27 10:24:57;;;;;;;0.15;0.15;;;;;;;;;;4997932;28;20410;-85
2022/09/27 10:27:24;;;;;;;0.30;0.30;;;;;;;;;;4997642;28;20045;-85
2022/09/27 10:30:00;;;;;;;0.22;0.22;;;;;;;;;;4997519;28;20072;-85
2022/09/27 10:32:30;;;;;;;0.20;0.20;;;;;;;;;;5016266;28;20485;-85
2022/09/27 10:34:56;;;;;;;0.30;0.30;;;;;;;;;;4995650;28;20484;-85
2022/09/27 10:37:23;;;;;;;0.20;0.20;;;;;;;;;;4997375;28;20406;-85
2022/09/27 10:39:50;;;;;;;0.20;0.20;;;;;;;;;;4997051;28;20037;-86
2022/09/27 10:42:36;;;;;;;0.20;0.20;;;;;;;;;;4997352;28;20037;-85
2022/09/27 10:45:21;;;;;;;0.20;0.20;;;;;;;;;;4991894;28;20041;-85
2022/09/27 10:47:47;;;;;;;0.30;0.30;;;;;;;;;;4994176;28;20049;-85
2022/09/27 10:50:20;;;;;;;0.20;0.20;;;;;;;;;;4997291;28;20138;-85
2022/09/27 10:52:47;;;;;;;0.10;0.10;;;;;;;;;;4989881;28;20111;-84
2022/09/27 10:55:23;;;;;;;0.20;0.20;;;;;;;;;;4993297;28;20048;-85
2022/09/27 10:57:51;;;;;;;0.20;0.20;;;;;;;;;;4989966;28;20037;-85
2022/09/27 11:00:30;;;;;;;0.22;0.22;;;;;;;;;;4997292;28;20041;-85
2022/09/27 11:02:57;;;;;;;0.13;0.13;;;;;;;;;;5013855;28;20041;-84
2022/09/27 11:05:25;;;;;;;0.20;0.20;;;;;;;;;;5005799;28;20086;-85
2022/09/27 11:07:58;;;;;;;0.38;0.38;;;;;;;;;;4998940;28;20135;-86
2022/09/27 11:10:35;;;;;;;0.22;0.22;;;;;;;;;;4999248;28;20176;-86
2022/09/27 11:13:11;;;;;;;0.30;0.30;;;;;;;;;;5016605;28;20045;-86
2022/09/27 11:19:22;;;;;;;0.35;0.35;;;;;;;;;;5024270;28;20098;-87
2022/09/27 11:22:01;;;;;;;0.20;0.20;;;;;;;;;;5003382;28;20038;-86
2022/09/27 11:24:30;;;;;;;0.30;0.30;;;;;;;;;;4996629;28;20037;-86
2022/09/27 11:27:19;;;;;;;0.20;0.20;;;;;;;;;;4990132;28;20407;-86
2022/09/27 11:30:05;;;;;;;0.20;0.20;;;;;;;;;;4989630;28;20076;-87
2022/09/27 11:32:50;;;;;;;0.25;0.25;;;;;;;;;;4997032;28;20029;-87
2022/09/27 11:35:35;;;;;;;0.30;0.30;;;;;;;;;;4994168;28;20052;-86
2022/09/27 11:38:13;;;;;;;0.30;0.30;;;;;;;;;;4998059;28;20067;-88
2022/09/27 11:40:59;;;;;;;0.20;0.20;;;;;;;;;;5016043;28;20080;-85
2022/09/27 11:43:26;;;;;;;0.20;0.20;;;;;;;;;;4997532;28;20041;-88
2022/09/27 11:46:07;;;;;;;0.10;0.10;;;;;;;;;;5014404;28;20056;-87
2022/09/27 11:48:40;;;;;;;0.10;0.10;;;;;;;;;;4997583;28;20056;-86
2022/09/27 11:51:25;;;;;;;0.20;0.20;;;;;;;;;;5013541;28;20335;-84
2022/09/27 11:53:51;;;;;;;0.20;0.20;;;;;;;;;;5004916;28;20041;-87
2022/09/27 11:56:32;;;;;;;0.20;0.20;;;;;;;;;;5011034;28;20045;-86
2022/09/27 11:59:13;;;;;;;0.20;0.20;;;;;;;;;;5022177;28;20495;-86
2022/09/27 12:01:50;;;;;;;0.20;0.20;;;;;;;;;;5007297;28;20044;-83
2022/09/27 12:04:28;;;;;;;0.30;0.30;;;;;;;;;;4999200;28;20112;-86
2022/09/27 12:07:13;;;;;;;0.20;0.20;;;;;;;;;;5001260;28;20052;-87
2022/09/27 12:09:42;;;;;;;0.20;0.20;;;;;;;;;;5003449;28;20095;-85
2022/09/27 12:12:18;;;;;;;0.30;0.30;;;;;;;;;;4999361;28;20045;-86
2022/09/27 12:14:46;;;;;;;0.22;0.22;;;;;;;;;;5034417;28;20524;-85
2022/09/27 12:17:16;;;;;;;0.20;0.20;;;;;;;;;;5018822;28;20048;-87
2022/09/27 12:19:45;;;;;;;0.22;0.22;;;;;;;;;;5023058;28;20041;-87
2022/09/27 12:22:14;;;;;;;0.20;0.20;;;;;;;;;;5002541;28;20037;-86
2022/09/27 12:24:40;;;;;;;0.30;0.30;;;;;;;;;;4993191;28;20119;-88
2022/09/27 12:27:29;;;;;;;0.30;0.30;;;;;;;;;;4997659;28;20533;-86
2022/09/27 12:29:57;;;;;;;0.20;0.20;;;;;;;;;;4986431;28;20107;-86
2022/09/27 12:32:30;;;;;;;0.10;0.10;;;;;;;;;;4999599;28;20041;-86
2022/09/27 12:35:01;;;;;;;0.30;0.30;;;;;;;;;;4999516;28;20048;-85
2022/09/27 12:37:29;;;;;;;0.20;0.20;;;;;;;;;;4999510;28;20041;-85
2022/09/27 12:40:14;;;;;;;0.20;0.20;;;;;;;;;;4998823;28;20037;-86
2022/09/27 12:42:43;;;;;;;0.30;0.30;;;;;;;;;;4998821;28;20052;-87
2022/09/27 12:45:13;;;;;;;0.20;0.20;;;;;;;;;;4999594;28;20045;-87
2022/09/27 12:47:49;;;;;;;0.20;0.20;;;;;;;;;;4995732;28;20041;-86
2022/09/27 12:50:30;;;;;;;0.10;0.10;;;;;;;;;;4999836;28;20054;-86
2022/09/27 12:53:03;;;;;;;0.20;0.20;;;;;;;;;;4999194;28;20071;-86
2022/09/27 12:55:47;;;;;;;0.20;0.20;;;;;;;;;;5006159;28;20109;-86
2022/09/27 12:58:41;;;;;;;0.20;0.20;;;;;;;;;;4979639;28;20050;-86
2022/09/27 13:01:19;;;;;;;0.10;0.10;;;;;;;;;;4991046;28;20053;-87
2022/09/27 13:04:14;;;;;;;0.20;0.20;;;;;;;;;;4980012;28;20445;-85
2022/09/27 13:06:47;;;;;;;0.30;0.30;;;;;;;;;;4978521;28;20049;-88
2022/09/27 13:09:24;;;;;;;0.30;0.30;;;;;;;;;;5006867;28;20044;-91
2022/09/27 13:12:02;;;;;;;0.20;0.20;;;;;;;;;;5006182;28;20033;-89
2022/09/27 13:14:31;;;;;;;0.30;0.30;;;;;;;;;;4998119;28;20315;-88
2022/09/27 13:16:57;;;;;;;0.28;0.28;;;;;;;;;;4994542;28;20406;-85
2022/09/27 13:19:35;;;;;;;0.28;0.28;;;;;;;;;;4998236;28;20037;-85
2022/09/27 13:22:03;;;;;;;0.17;0.17;;;;;;;;;;4998496;28;20037;-87
2022/09/27 13:24:39;;;;;;;0.20;0.20;;;;;;;;;;5010464;28;20042;-86
2022/09/27 13:27:24;;;;;;;0.10;0.10;;;;;;;;;;4998359;28;20049;-85
2022/09/27 13:29:51;;;;;;;0.10;0.10;;;;;;;;;;5015103;28;20041;-87
2022/09/27 13:32:21;;;;;;;0.10;0.10;;;;;;;;;;4998247;28;20041;-87
2022/09/27 13:34:52;;;;;;;0.20;0.20;;;;;;;;;;5011622;28;20409;-87
2022/09/27 13:37:36;;;;;;;0.20;0.20;;;;;;;;;;5003622;28;20037;-87
2022/09/27 13:40:15;;;;;;;0.20;0.20;;;;;;;;;;4994572;28;20408;-86
2022/09/27 13:42:48;;;;;;;0.10;0.10;;;;;;;;;;4992225;28;20494;-86
2022/09/27 13:45:19;;;;;;;0.20;0.20;;;;;;;;;;4996753;28;20045;-87
2022/09/27 13:47:47;;;;;;;0.30;0.30;;;;;;;;;;4995738;28;20037;-86
2022/09/27 13:50:22;;;;;;;0.20;0.20;;;;;;;;;;4994878;28;20532;-86
2022/09/27 13:52:48;;;;;;;;;;;;;;;;;;4995585;28;20655;-86
2022/09/27 13:55:33;;;;;;;0.30;0.30;;;;;;;;;;4994600;28;19917;-88
2022/09/27 13:58:05;;;;;;;0.28;0.28;;;;;;;;;;4994828;28;20037;-87
2022/09/27 14:00:34;;;;;;;0.17;0.17;;;;;;;;;;4996269;28;20059;-88
2022/09/27 14:03:14;;;;;;;0.20;0.20;;;;;;;;;;4997103;28;20087;-86
2022/09/27 14:05:58;;;;;;;0.10;0.10;;;;;;;;;;5012274;28;20455;-86
2022/09/27 14:08:45;;;;;;;0.20;0.20;;;;;;;;;;4997871;28;20053;-87
2022/09/27 14:11:22;;;;;;;0.20;0.20;;;;;;;;;;4997137;28;20096;-86
2022/09/27 14:13:49;;;;;;;0.10;0.10;;;;;;;;;;4996803;28;20069;-88
2022/09/27 14:16:16;;;;;;;0.10;0.10;;;;;;;;;;4997319;28;20044;-86
2022/09/27 14:18:52;;;;;;;0.30;0.30;;;;;;;;;;5029959;28;20063;-86
2022/09/27 14:21:24;;;;;;;0.40;0.40;;;;;;;;;;4981276;28;20121;-86
2022/09/27 14:23:55;;;;;;;0.20;0.20;;;;;;;;;;5012793;28;20038;-86
2022/09/27 14:26:22;;;;;;;0.30;0.30;;;;;;;;;;4996995;28;20042;-86
2022/09/27 14:28:48;;;;;;;0.30;0.30;;;;;;;;;;4997556;28;20410;-87
2022/09/27 14:31:22;;;;;;;0.30;0.30;;;;;;;;;;5013951;28;20045;-87
2022/09/27 14:34:10;;;;;;;0.20;0.20;;;;;;;;;;4997713;28;20049;-86
2022/09/27 14:39:31;;;;;;;0.30;0.30;;;;;;;;;;5013534;28;20478;-86
2022/09/27 14:41:57;;;;;;;0.20;0.20;;;;;;;;;;4997485;28;20671;-86
2022/09/27 14:44:23;;;;;;;0.20;0.20;;;;;;;;;;5009683;28;20033;-86
2022/09/27 14:47:06;;;;;;;0.10;0.10;;;;;;;;;;4996542;28;20045;-86
2022/09/27 14:49:33;;;;;;;0.13;0.13;;;;;;;;;;4990330;28;20043;-86
2022/09/27 14:51:59;;;;;;;0.13;0.13;;;;;;;;;;4994914;28;20049;-86
2022/09/27 14:54:32;;;;;;;0.20;0.20;;;;;;;;;;4998043;28;20097;-85
2022/09/27 14:56:59;;;;;;;0.30;0.30;;;;;;;;;;4998895;28;20044;-84
2022/09/27 14:59:29;;;;;;;0.20;0.20;;;;;;;;;;5002143;28;20033;-86
2022/09/27 15:01:59;;;;;;;0.30;0.30;;;;;;;;;;5002666;28;20073;-86
2022/09/27 15:07:18;;;;;;;0.10;0.10;;;;;;;;;;5001259;28;20054;-86
2022/09/27 15:09:44;;;;;;;0.10;0.10;;;;;;;;;;5013673;28;20051;-86
2022/09/27 15:12:12;;;;;;;0.10;0.10;;;;;;;;;;5002379;28;20446;-86
2022/09/27 15:14:44;;;;;;;0.22;0.22;;;;;;;;;;5003429;28;20087;-86
2022/09/27 15:17:15;;;;;;;0.10;0.10;;;;;;;;;;5002127;28;20044;-86
2022/09/27 15:19:55;;;;;;;0.30;0.30;;;;;;;;;;5002206;28;20563;-86
2022/09/27 15:22:22;;;;;;;0.30;0.30;;;;;;;;;;5002333;28;20478;-86